createdAt,value
2022-10-01T00:02:08.382Z,9.58
2022-10-01T00:04:39.573Z,9.50
2022-10-01T00:07:10.851Z,9.49
2022-10-01T00:09:39.532Z,9.44
2022-10-01T00:12:09.504Z,9.42
2022-10-01T00:14:39.414Z,9.40
2022-10-01T00:17:07.766Z,9.42
2022-10-01T00:19:37.375Z,9.46
2022-10-01T00:22:05.792Z,9.39
2022-10-01T00:24:34.119Z,9.34
2022-10-01T00:27:02.433Z,9.30
2022-10-01T00:29:31.839Z,9.25
2022-10-01T00:32:00.202Z,9.23
2022-10-01T00:34:28.774Z,9.24
2022-10-01T00:36:58.373Z,9.21
2022-10-01T00:39:26.767Z,9.22
2022-10-01T00:41:55.070Z,9.16
2022-10-01T00:44:33.228Z,9.12
2022-10-01T00:47:07.790Z,9.09
2022-10-01T00:49:39.103Z,9.02
2022-10-01T00:52:14.682Z,9.04
2022-10-01T00:54:47.286Z,9.07
2022-10-01T00:57:19.937Z,9.05
2022-10-01T00:59:49.657Z,9.01
2022-10-01T01:02:18.174Z,9.00
2022-10-01T01:04:46.451Z,8.97
2022-10-01T01:07:16.978Z,8.92
2022-10-01T01:09:48.802Z,8.96
2022-10-01T01:12:32.703Z,8.90
2022-10-01T01:15:16.025Z,8.90
2022-10-01T01:17:54.575Z,8.92
2022-10-01T01:20:45.225Z,8.92
2022-10-01T01:23:48.577Z,8.86
2022-10-01T01:26:31.094Z,8.89
2022-10-01T01:29:06.701Z,8.91
2022-10-01T01:31:40.282Z,8.90
2022-10-01T01:34:12.986Z,8.86
2022-10-01T01:36:46.937Z,8.95
2022-10-01T01:39:18.203Z,8.87
2022-10-01T01:41:51.591Z,8.87
2022-10-01T01:44:26.987Z,8.87
2022-10-01T01:46:57.414Z,8.86
2022-10-01T01:49:26.884Z,8.86
2022-10-01T01:52:02.484Z,8.85
2022-10-01T01:54:30.996Z,8.83
2022-10-01T01:57:01.486Z,8.79
2022-10-01T01:59:33.893Z,8.79
2022-10-01T02:02:03.324Z,8.76
2022-10-01T02:04:36.342Z,8.74
2022-10-01T02:07:42.934Z,8.69
2022-10-01T02:10:27.995Z,8.70
2022-10-01T02:13:11.783Z,8.71
2022-10-01T02:15:59.657Z,8.69
2022-10-01T02:18:36.065Z,8.70
2022-10-01T02:21:12.332Z,8.74
2022-10-01T02:23:46.155Z,8.74
2022-10-01T02:26:20.023Z,8.72
2022-10-01T02:28:50.444Z,8.71
2022-10-01T02:31:21.570Z,8.70
2022-10-01T02:33:52.323Z,8.69
2022-10-01T02:36:22.127Z,8.69
2022-10-01T02:38:51.741Z,8.66
2022-10-01T02:41:28.095Z,8.69
2022-10-01T02:44:00.643Z,8.66
2022-10-01T02:46:38.282Z,8.66
2022-10-01T02:49:06.692Z,8.69
2022-10-01T02:51:46.033Z,8.69
2022-10-01T02:54:20.276Z,8.67
2022-10-01T02:57:06.562Z,8.68
2022-10-01T02:59:34.828Z,8.66
2022-10-01T03:02:04.908Z,8.69
2022-10-01T03:04:33.201Z,8.66
2022-10-01T03:07:04.003Z,8.65
2022-10-01T03:09:32.517Z,8.69
2022-10-01T03:12:01.112Z,8.70
2022-10-01T03:14:29.882Z,8.71
2022-10-01T03:16:58.183Z,8.73
2022-10-01T03:19:27.880Z,8.77
2022-10-01T03:21:56.469Z,8.73
2022-10-01T03:24:24.795Z,8.72
2022-10-01T03:26:53.044Z,8.77
2022-10-01T03:29:21.343Z,8.75
2022-10-01T03:31:49.742Z,8.79
2022-10-01T03:34:18.196Z,8.80
2022-10-01T03:36:48.372Z,8.81
2022-10-01T03:39:17.047Z,8.80
2022-10-01T03:41:45.391Z,8.81
2022-10-01T03:44:13.807Z,8.77
2022-10-01T03:46:42.092Z,8.82
2022-10-01T03:49:10.629Z,8.80
2022-10-01T03:51:39.160Z,8.82
2022-10-01T03:54:11.200Z,8.77
2022-10-01T03:56:40.804Z,8.77
2022-10-01T03:59:09.255Z,8.70
2022-10-01T04:01:38.011Z,8.69
2022-10-01T04:04:06.855Z,8.66
2022-10-01T04:06:35.390Z,8.61
2022-10-01T04:09:03.821Z,8.61
2022-10-01T04:11:33.870Z,8.56
2022-10-01T04:14:02.316Z,8.52
2022-10-01T04:16:30.826Z,8.56
2022-10-01T04:18:59.219Z,8.60
2022-10-01T04:21:27.786Z,8.60
2022-10-01T04:23:56.235Z,8.61
2022-10-01T04:26:25.142Z,8.63
2022-10-01T04:28:54.870Z,8.61
2022-10-01T04:31:26.106Z,8.61
2022-10-01T04:33:55.869Z,8.62
2022-10-01T04:36:25.119Z,8.62
2022-10-01T04:38:57.901Z,8.64
2022-10-01T04:41:26.455Z,8.62
2022-10-01T04:43:56.183Z,8.63
2022-10-01T04:46:24.476Z,8.65
2022-10-01T04:48:52.794Z,8.67
2022-10-01T04:51:21.068Z,8.67
2022-10-01T04:53:49.352Z,8.73
2022-10-01T04:56:17.601Z,8.72
2022-10-01T04:58:46.038Z,8.71
2022-10-01T05:01:15.761Z,8.77
2022-10-01T05:03:44.147Z,8.74
2022-10-01T05:06:12.458Z,8.82
2022-10-01T05:08:40.728Z,8.80
2022-10-01T05:11:09.166Z,8.86
2022-10-01T05:13:37.877Z,8.87
2022-10-01T05:16:06.863Z,8.94
2022-10-01T05:18:36.958Z,8.94
2022-10-01T05:21:09.977Z,9.00
2022-10-01T05:23:38.299Z,9.02
2022-10-01T05:26:07.416Z,9.03
2022-10-01T05:28:37.134Z,9.01
2022-10-01T05:31:06.271Z,9.01
2022-10-01T05:33:35.999Z,9.04
2022-10-01T05:36:05.117Z,9.02
2022-10-01T05:38:36.261Z,9.00
2022-10-01T05:41:04.993Z,9.00
2022-10-01T05:43:37.513Z,9.00
2022-10-01T05:46:06.491Z,9.00
2022-10-01T05:48:37.051Z,9.01
2022-10-01T05:51:08.134Z,9.09
2022-10-01T05:53:38.177Z,9.05
2022-10-01T05:56:07.758Z,9.06
2022-10-01T05:58:36.707Z,9.09
2022-10-01T06:01:05.785Z,9.09
2022-10-01T06:03:36.099Z,9.13
2022-10-01T06:06:05.448Z,9.13
2022-10-01T06:08:35.874Z,9.16
2022-10-01T06:11:04.809Z,9.15
2022-10-01T06:13:33.140Z,9.16
2022-10-01T06:16:01.771Z,9.11
2022-10-01T06:18:31.336Z,9.13
2022-10-01T06:21:01.789Z,9.14
2022-10-01T06:23:30.281Z,9.14
2022-10-01T06:26:01.086Z,9.14
2022-10-01T06:28:29.914Z,9.12
2022-10-01T06:30:58.400Z,9.12
2022-10-01T06:33:26.884Z,9.16
2022-10-01T06:35:56.179Z,9.17
2022-10-01T06:38:26.337Z,9.10
2022-10-01T06:40:56.935Z,9.09
2022-10-01T06:43:27.638Z,9.11
2022-10-01T06:45:57.326Z,9.09
2022-10-01T06:48:26.710Z,9.05
2022-10-01T06:50:57.477Z,9.05
2022-10-01T06:53:29.353Z,9.05
2022-10-01T06:55:57.898Z,9.04
2022-10-01T06:58:27.629Z,9.06
2022-10-01T07:01:01.458Z,9.11
2022-10-01T07:03:31.267Z,9.13
2022-10-01T07:06:04.507Z,9.10
2022-10-01T07:08:34.293Z,9.09
2022-10-01T07:11:03.693Z,9.12
2022-10-01T07:13:32.386Z,9.10
2022-10-01T07:16:00.855Z,9.10
2022-10-01T07:18:29.187Z,9.10
2022-10-01T07:20:58.416Z,9.05
2022-10-01T07:23:26.648Z,9.06
2022-10-01T07:25:56.229Z,9.05
2022-10-01T07:28:26.202Z,9.05
2022-10-01T07:31:03.219Z,9.06
2022-10-01T07:33:31.633Z,9.07
2022-10-01T07:36:03.156Z,9.06
2022-10-01T07:38:33.533Z,9.09
2022-10-01T07:41:04.626Z,9.07
2022-10-01T07:43:34.662Z,9.14
2022-10-01T07:46:03.491Z,9.13
2022-10-01T07:48:32.370Z,9.22
2022-10-01T07:51:00.768Z,9.20
2022-10-01T07:53:29.216Z,9.19
2022-10-01T07:55:57.911Z,9.19
2022-10-01T07:58:27.612Z,9.22
2022-10-01T08:00:58.402Z,9.22
2022-10-01T08:03:27.033Z,9.23
2022-10-01T08:05:55.445Z,9.24
2022-10-01T08:08:24.104Z,9.27
2022-10-01T08:10:52.587Z,9.30
2022-10-01T08:13:24.688Z,9.29
2022-10-01T08:15:54.983Z,9.35
2022-10-01T08:18:24.238Z,9.37
2022-10-01T08:20:52.685Z,9.43
2022-10-01T08:23:21.632Z,9.38
2022-10-01T08:25:49.916Z,9.38
2022-10-01T08:28:18.667Z,9.38
2022-10-01T08:30:46.982Z,9.40
2022-10-01T08:33:16.748Z,9.40
2022-10-01T08:35:45.386Z,9.44
2022-10-01T08:38:14.643Z,9.47
2022-10-01T08:40:47.584Z,9.46
2022-10-01T08:43:36.387Z,9.47
2022-10-01T08:46:08.517Z,9.46
2022-10-01T08:48:56.911Z,9.50
2022-10-01T08:51:32.763Z,9.50
2022-10-01T08:54:10.815Z,9.52
2022-10-01T08:56:45.162Z,9.49
2022-10-01T08:59:29.978Z,9.53
2022-10-01T09:01:59.112Z,9.56
2022-10-01T09:04:30.529Z,9.53
2022-10-01T09:07:08.388Z,9.52
2022-10-01T09:09:46.482Z,9.52
2022-10-01T09:12:29.913Z,9.55
2022-10-01T09:15:17.778Z,9.54
2022-10-01T09:18:02.894Z,9.53
2022-10-01T09:20:37.293Z,9.52
2022-10-01T09:23:20.090Z,9.59
2022-10-01T09:25:51.424Z,9.60
2022-10-01T09:28:24.013Z,9.59
2022-10-01T09:30:57.974Z,9.59
2022-10-01T09:33:32.937Z,9.62
2022-10-01T09:36:14.217Z,9.66
2022-10-01T09:38:45.284Z,9.66
2022-10-01T09:41:14.761Z,9.69
2022-10-01T09:43:46.015Z,9.67
2022-10-01T09:46:18.582Z,9.73
2022-10-01T09:48:57.070Z,9.70
2022-10-01T09:51:36.992Z,9.69
2022-10-01T09:54:16.349Z,9.69
2022-10-01T09:56:54.178Z,9.69
2022-10-01T09:59:29.867Z,9.73
2022-10-01T10:02:02.646Z,9.75
2022-10-01T10:04:31.613Z,9.82
2022-10-01T10:07:06.105Z,9.84
2022-10-01T10:09:36.691Z,9.88
2022-10-01T10:12:08.320Z,9.86
2022-10-01T10:14:40.119Z,9.86
2022-10-01T10:17:15.834Z,9.94
2022-10-01T10:19:51.648Z,9.95
2022-10-01T10:22:25.674Z,10.00
2022-10-01T10:24:57.913Z,10.12
2022-10-01T10:27:28.994Z,10.11
2022-10-01T10:30:08.583Z,10.23
2022-10-01T10:32:36.950Z,10.24
2022-10-01T10:35:10.774Z,10.31
2022-10-01T10:37:48.322Z,10.35
2022-10-01T10:40:20.386Z,10.42
2022-10-01T10:42:50.667Z,10.42
2022-10-01T10:45:22.210Z,10.45
2022-10-01T10:47:53.740Z,10.51
2022-10-01T10:50:34.962Z,10.51
2022-10-01T10:53:22.217Z,10.51
2022-10-01T10:56:01.200Z,10.58
2022-10-01T10:58:33.161Z,10.63
2022-10-01T11:01:06.896Z,10.67
2022-10-01T11:03:42.445Z,10.72
2022-10-01T11:06:14.808Z,10.73
2022-10-01T11:08:46.663Z,10.79
2022-10-01T11:11:32.420Z,10.84
2022-10-01T11:14:18.065Z,10.92
2022-10-01T11:17:25.850Z,10.96
2022-10-01T11:20:19.855Z,10.95
2022-10-01T11:23:03.929Z,11.06
2022-10-01T11:25:46.222Z,11.09
2022-10-01T11:28:33.987Z,11.12
2022-10-01T11:31:12.875Z,11.12
2022-10-01T11:33:58.427Z,11.17
2022-10-01T11:36:32.271Z,11.17
2022-10-01T11:39:03.828Z,11.20
2022-10-01T11:41:39.300Z,11.24
2022-10-01T11:44:15.448Z,11.23
2022-10-01T11:46:58.935Z,11.32
2022-10-01T11:49:46.628Z,11.35
2022-10-01T11:52:37.125Z,11.40
2022-10-01T11:55:38.570Z,11.39
2022-10-01T11:58:34.388Z,11.44
2022-10-01T12:01:11.752Z,11.41
2022-10-01T12:03:54.909Z,11.45
2022-10-01T12:06:33.796Z,11.47
2022-10-01T12:09:10.598Z,11.44
2022-10-01T12:11:44.746Z,11.46
2022-10-01T12:14:21.055Z,11.46
2022-10-01T12:16:55.012Z,11.43
2022-10-01T12:19:28.368Z,11.49
2022-10-01T12:22:03.041Z,11.52
2022-10-01T12:24:36.774Z,11.61
2022-10-01T12:27:28.195Z,11.59
2022-10-01T12:30:05.243Z,11.63
2022-10-01T12:32:47.857Z,11.70
2022-10-01T12:35:35.697Z,11.77
2022-10-01T12:38:20.694Z,11.75
2022-10-01T12:40:55.399Z,11.78
2022-10-01T12:43:45.990Z,11.83
2022-10-01T12:46:27.885Z,11.89
2022-10-01T12:49:07.893Z,11.92
2022-10-01T12:51:42.739Z,11.99
2022-10-01T12:54:26.284Z,12.01
2022-10-01T12:57:04.337Z,12.08
2022-10-01T12:59:48.588Z,12.10
2022-10-01T13:02:41.790Z,12.25
2022-10-01T13:05:20.983Z,12.26
2022-10-01T13:08:18.662Z,12.32
2022-10-01T13:10:57.323Z,12.44
2022-10-01T13:13:33.524Z,12.49
2022-10-01T13:16:10.372Z,12.57
2022-10-01T13:18:56.633Z,12.67
2022-10-01T13:21:37.991Z,12.69
2022-10-01T13:24:14.912Z,12.69
2022-10-01T13:26:48.711Z,12.71
2022-10-01T13:29:32.173Z,12.76
2022-10-01T13:32:03.071Z,12.81
2022-10-01T13:34:42.249Z,12.82
2022-10-01T13:37:14.087Z,12.86
2022-10-01T13:39:43.439Z,12.91
2022-10-01T13:42:22.352Z,12.97
2022-10-01T13:44:57.450Z,13.02
2022-10-01T13:47:27.296Z,13.13
2022-10-01T13:50:00.579Z,13.18
2022-10-01T13:52:29.116Z,13.21
2022-10-01T13:54:59.017Z,13.25
2022-10-01T13:57:32.892Z,13.23
2022-10-01T14:00:20.335Z,13.26
2022-10-01T14:03:04.290Z,13.29
2022-10-01T14:05:43.703Z,13.36
2022-10-01T14:08:19.100Z,13.44
2022-10-01T14:11:12.171Z,13.52
2022-10-01T14:14:05.203Z,13.54
2022-10-01T14:16:40.183Z,13.64
2022-10-01T14:19:09.600Z,13.72
2022-10-01T14:21:53.892Z,13.77
2022-10-01T14:24:32.870Z,13.76
2022-10-01T14:27:10.976Z,13.79
2022-10-01T14:29:53.927Z,13.79
2022-10-01T14:32:38.173Z,13.88
2022-10-01T14:35:26.642Z,13.86
2022-10-01T14:38:02.004Z,13.86
2022-10-01T14:40:39.112Z,13.92
2022-10-01T14:43:19.032Z,13.95
2022-10-01T14:45:56.711Z,13.95
2022-10-01T14:48:29.219Z,13.94
2022-10-01T14:51:00.999Z,13.97
2022-10-01T14:53:34.379Z,13.99
2022-10-01T14:56:07.705Z,14.01
2022-10-01T14:58:40.741Z,13.99
2022-10-01T15:01:18.216Z,14.03
2022-10-01T15:03:47.924Z,13.97
2022-10-01T15:06:19.102Z,13.98
2022-10-01T15:08:50.831Z,14.02
2022-10-01T15:11:23.837Z,14.02
2022-10-01T15:13:54.614Z,14.00
2022-10-01T15:16:25.563Z,13.97
2022-10-01T15:18:57.886Z,13.97
2022-10-01T15:21:31.825Z,13.95
2022-10-01T15:24:04.478Z,13.99
2022-10-01T15:26:33.723Z,14.00
2022-10-01T15:29:05.122Z,14.10
2022-10-01T15:31:35.157Z,14.23
2022-10-01T15:34:06.310Z,14.38
2022-10-01T15:36:37.093Z,14.37
2022-10-01T15:39:25.811Z,14.25
2022-10-01T15:41:55.611Z,14.22
2022-10-01T15:44:46.477Z,14.14
2022-10-01T15:47:33.749Z,14.07
2022-10-01T15:50:05.383Z,14.04
2022-10-01T15:52:53.189Z,13.98
2022-10-01T15:55:32.080Z,13.98
2022-10-01T15:58:09.032Z,13.95
2022-10-01T16:01:00.599Z,13.93
2022-10-01T16:03:34.252Z,13.89
2022-10-01T16:06:05.171Z,13.91
2022-10-01T16:08:40.387Z,13.85
2022-10-01T16:11:23.872Z,13.86
2022-10-01T16:13:54.762Z,13.85
2022-10-01T16:16:31.119Z,13.88
2022-10-01T16:19:20.003Z,13.88
2022-10-01T16:22:20.968Z,13.83
2022-10-01T16:24:52.247Z,13.81
2022-10-01T16:27:25.213Z,13.82
2022-10-01T16:30:04.981Z,13.76
2022-10-01T16:32:34.852Z,13.80
2022-10-01T16:35:19.917Z,13.75
2022-10-01T16:37:50.070Z,13.73
2022-10-01T16:40:19.404Z,13.69
2022-10-01T16:42:50.469Z,13.71
2022-10-01T16:45:22.660Z,13.70
2022-10-01T16:47:51.746Z,13.69
2022-10-01T16:50:22.379Z,13.65
2022-10-01T16:52:53.897Z,13.67
2022-10-01T16:55:25.460Z,13.65
2022-10-01T16:57:56.012Z,13.61
2022-10-01T17:00:26.633Z,13.63
2022-10-01T17:02:56.076Z,13.61
2022-10-01T17:05:28.200Z,13.62
2022-10-01T17:08:00.979Z,13.59
2022-10-01T17:10:31.879Z,13.59
2022-10-01T17:13:02.071Z,13.62
2022-10-01T17:15:30.469Z,13.58
2022-10-01T17:18:00.238Z,13.54
2022-10-01T17:20:30.347Z,13.53
2022-10-01T17:23:00.493Z,13.52
2022-10-01T17:25:32.385Z,13.52
2022-10-01T17:28:06.607Z,13.51
2022-10-01T17:30:35.506Z,13.46
2022-10-01T17:33:03.754Z,13.46
2022-10-01T17:35:32.191Z,13.48
2022-10-01T17:38:00.591Z,13.52
2022-10-01T17:40:29.330Z,13.46
2022-10-01T17:42:57.560Z,13.45
2022-10-01T17:45:27.266Z,13.48
2022-10-01T17:47:56.537Z,13.41
2022-10-01T17:50:24.789Z,13.40
2022-10-01T17:52:53.322Z,13.42
2022-10-01T17:55:23.641Z,13.42
2022-10-01T17:57:52.664Z,13.36
2022-10-01T18:00:21.235Z,13.32
2022-10-01T18:02:51.149Z,13.31
2022-10-01T18:05:19.741Z,13.31
2022-10-01T18:07:48.176Z,13.32
2022-10-01T18:10:16.541Z,13.31
2022-10-01T18:12:44.967Z,13.31
2022-10-01T18:15:13.796Z,13.23
2022-10-01T18:17:43.748Z,13.20
2022-10-01T18:20:21.918Z,13.18
2022-10-01T18:22:51.243Z,13.19
2022-10-01T18:25:19.993Z,13.22
2022-10-01T18:27:51.003Z,13.24
2022-10-01T18:30:20.146Z,13.20
2022-10-01T18:32:56.899Z,13.21
2022-10-01T18:35:32.322Z,13.21
2022-10-01T18:38:07.879Z,13.20
2022-10-01T18:40:43.208Z,13.16
2022-10-01T18:43:17.281Z,13.12
2022-10-01T18:46:05.702Z,13.05
2022-10-01T18:48:53.209Z,13.00
2022-10-01T18:51:39.875Z,12.87
2022-10-01T18:54:34.494Z,12.81
2022-10-01T18:57:16.388Z,12.73
2022-10-01T19:00:06.449Z,12.62
2022-10-01T19:02:55.151Z,12.56
2022-10-01T19:06:25.900Z,12.48
2022-10-01T19:09:09.758Z,12.47
2022-10-01T19:11:49.855Z,12.45
2022-10-01T19:14:43.017Z,12.42
2022-10-01T19:17:27.606Z,12.45
2022-10-01T19:20:14.609Z,12.43
2022-10-01T19:23:02.453Z,12.43
2022-10-01T19:25:37.459Z,12.41
2022-10-01T19:28:22.504Z,12.40
2022-10-01T19:31:02.446Z,12.39
2022-10-01T19:33:33.895Z,12.36
2022-10-01T19:36:03.042Z,12.48
2022-10-01T19:38:38.339Z,12.48
2022-10-01T19:41:15.882Z,12.52
2022-10-01T19:43:52.108Z,12.52
2022-10-01T19:46:27.447Z,12.55
2022-10-01T19:49:03.523Z,12.49
2022-10-01T19:51:36.108Z,12.51
2022-10-01T19:54:17.666Z,12.50
2022-10-01T19:56:50.069Z,12.52
2022-10-01T19:59:21.056Z,12.49
2022-10-01T20:01:54.887Z,12.49
2022-10-01T20:04:38.234Z,12.59
2022-10-01T20:07:12.356Z,12.54
2022-10-01T20:09:46.954Z,12.60
2022-10-01T20:12:26.841Z,12.57
2022-10-01T20:15:11.319Z,12.55
2022-10-01T20:17:57.180Z,12.54
2022-10-01T20:20:33.680Z,12.57
2022-10-01T20:23:20.344Z,12.56
2022-10-01T20:25:57.822Z,12.61
2022-10-01T20:28:36.129Z,12.58
2022-10-01T20:31:14.095Z,12.58
2022-10-01T20:33:51.634Z,12.58
2022-10-01T20:36:31.709Z,12.60
2022-10-01T20:39:06.408Z,12.59
2022-10-01T20:41:45.138Z,12.61
2022-10-01T20:44:18.722Z,12.62
2022-10-01T20:46:49.697Z,12.62
2022-10-01T20:49:27.984Z,12.54
2022-10-01T20:52:09.148Z,12.48
2022-10-01T20:54:46.554Z,12.47
2022-10-01T20:57:26.827Z,12.46
2022-10-01T20:59:57.275Z,12.53
2022-10-01T21:02:33.798Z,12.58
2022-10-01T21:05:06.541Z,12.66
2022-10-01T21:07:40.402Z,12.67
2022-10-01T21:10:20.986Z,12.62
2022-10-01T21:13:00.669Z,12.73
2022-10-01T21:15:43.569Z,12.61
2022-10-01T21:18:22.191Z,12.59
2022-10-01T21:21:01.268Z,12.64
2022-10-01T21:23:51.457Z,12.56
2022-10-01T21:26:27.884Z,12.58
2022-10-01T21:29:24.258Z,12.65
2022-10-01T21:32:09.564Z,12.57
2022-10-01T21:34:55.390Z,12.58
2022-10-01T21:37:32.021Z,12.56
2022-10-01T21:40:09.899Z,12.53
2022-10-01T21:42:52.377Z,12.54
2022-10-01T21:45:26.651Z,12.54
2022-10-01T21:48:16.337Z,12.61
2022-10-01T21:50:57.031Z,12.60
2022-10-01T21:53:59.393Z,12.60
2022-10-01T21:56:59.748Z,12.56
2022-10-01T21:59:52.342Z,12.51
2022-10-01T22:02:36.350Z,12.46
2022-10-01T22:05:17.500Z,12.40
2022-10-01T22:07:54.614Z,12.43
2022-10-01T22:10:28.049Z,12.36
2022-10-01T22:13:00.404Z,12.34
2022-10-01T22:15:36.733Z,12.41
2022-10-01T22:18:13.343Z,12.43
2022-10-01T22:20:43.851Z,12.36
2022-10-01T22:23:18.035Z,12.32
2022-10-01T22:25:55.353Z,12.32
2022-10-01T22:28:30.078Z,12.34
2022-10-01T22:31:00.557Z,12.36
2022-10-01T22:33:38.862Z,12.32
2022-10-01T22:36:12.212Z,12.36
2022-10-01T22:38:47.483Z,12.35
2022-10-01T22:41:21.640Z,12.37
2022-10-01T22:43:50.271Z,12.33
2022-10-01T22:46:43.942Z,12.36
2022-10-01T22:49:27.787Z,12.32
2022-10-01T22:52:13.020Z,12.29
2022-10-01T22:54:50.804Z,12.27
2022-10-01T22:57:40.301Z,12.29
2022-10-01T23:00:13.085Z,12.31
2022-10-01T23:02:45.234Z,12.30
2022-10-01T23:05:45.247Z,12.35
2022-10-01T23:08:22.834Z,12.34
2022-10-01T23:11:04.040Z,12.33
2022-10-01T23:13:43.286Z,12.34
2022-10-01T23:16:21.978Z,12.34
2022-10-01T23:19:05.191Z,12.35
2022-10-01T23:21:44.752Z,12.32
2022-10-01T23:24:31.009Z,12.32
2022-10-01T23:27:12.430Z,12.28
2022-10-01T23:30:05.763Z,12.22
2022-10-01T23:32:59.179Z,12.19
2022-10-01T23:35:42.700Z,12.21
2022-10-01T23:38:33.406Z,12.19
2022-10-01T23:41:11.241Z,12.19
2022-10-01T23:43:48.146Z,12.20
2022-10-01T23:46:20.509Z,12.24
2022-10-01T23:48:56.837Z,12.23
2022-10-01T23:51:29.873Z,12.20
2022-10-01T23:54:06.800Z,12.20
2022-10-01T23:56:48.928Z,12.21
2022-10-01T23:59:27.515Z,12.21
